createdAt,value
2023-04-04T00:00:29.006Z,-0.30
2023-04-04T00:02:55.865Z,-0.40
2023-04-04T00:05:23.056Z,-0.53
2023-04-04T00:07:49.933Z,-0.52
2023-04-04T00:10:17.123Z,-0.57
2023-04-04T00:12:44.208Z,-0.33
2023-04-04T00:15:11.753Z,-0.38
2023-04-04T00:17:38.970Z,-0.14
2023-04-04T00:20:06.617Z,-0.33
2023-04-04T00:22:33.268Z,-0.25
2023-04-04T00:25:00.331Z,0.02
2023-04-04T00:27:27.148Z,-0.13
2023-04-04T00:29:53.867Z,-0.02
2023-04-04T00:32:21.238Z,-0.00
2023-04-04T00:34:53.305Z,-0.11
2023-04-04T00:37:20.285Z,-0.05
2023-04-04T00:39:48.187Z,-0.06
2023-04-04T00:42:14.898Z,-0.12
2023-04-04T00:44:41.737Z,0.04
2023-04-04T00:47:08.690Z,-0.06
2023-04-04T00:49:35.737Z,-0.16
2023-04-04T00:52:02.527Z,-0.32
2023-04-04T00:54:30.672Z,-0.12
2023-04-04T00:56:58.350Z,-0.26
2023-04-04T00:59:27.929Z,-0.40
2023-04-04T01:01:55.032Z,-0.44
2023-04-04T01:04:22.134Z,-0.41
2023-04-04T01:06:50.096Z,-0.40
2023-04-04T01:09:17.137Z,-0.52
2023-04-04T01:11:44.670Z,-0.51
2023-04-04T01:14:11.641Z,-0.52
2023-04-04T01:16:39.825Z,-0.35
2023-04-04T01:19:11.681Z,-0.38
2023-04-04T01:21:39.503Z,-0.38
2023-04-04T01:24:08.729Z,-0.45
2023-04-04T01:26:44.122Z,-0.51
2023-04-04T01:29:11.266Z,-0.48
2023-04-04T01:31:51.313Z,-0.34
2023-04-04T01:34:32.133Z,-0.34
2023-04-04T01:37:36.257Z,-0.42
2023-04-04T01:40:22.094Z,-0.43
2023-04-04T01:42:52.166Z,-0.45
2023-04-04T01:45:23.152Z,-0.60
2023-04-04T01:47:51.052Z,-0.51
2023-04-04T01:50:22.060Z,-0.56
2023-04-04T01:52:50.171Z,-0.53
2023-04-04T01:55:17.096Z,-0.47
2023-04-04T01:57:43.904Z,-0.53
2023-04-04T02:00:11.382Z,-0.61
2023-04-04T02:02:43.933Z,-0.62
2023-04-04T02:05:11.586Z,-0.58
2023-04-04T02:07:38.747Z,-0.61
2023-04-04T02:10:12.997Z,-0.68
2023-04-04T02:12:40.187Z,-0.62
2023-04-04T02:15:07.416Z,-0.64
2023-04-04T02:17:35.805Z,-0.69
2023-04-04T02:20:03.980Z,-0.66
2023-04-04T02:22:30.775Z,-0.80
2023-04-04T02:24:57.984Z,-0.77
2023-04-04T02:27:24.713Z,-0.85
2023-04-04T02:29:51.440Z,-0.79
2023-04-04T02:32:18.557Z,-0.72
2023-04-04T02:34:46.031Z,-0.72
2023-04-04T02:37:13.301Z,-0.75
2023-04-04T02:39:40.502Z,-0.87
2023-04-04T02:42:07.165Z,-0.96
2023-04-04T02:44:33.850Z,-0.85
2023-04-04T02:47:00.648Z,-0.89
2023-04-04T02:49:30.171Z,-0.89
2023-04-04T02:51:57.939Z,-1.01
2023-04-04T02:54:28.443Z,-0.98
2023-04-04T02:56:55.987Z,-1.07
2023-04-04T02:59:22.697Z,-1.10
2023-04-04T03:01:49.622Z,-1.20
2023-04-04T03:04:16.485Z,-1.28
2023-04-04T03:06:43.558Z,-1.23
2023-04-04T03:09:10.948Z,-1.35
2023-04-04T03:11:37.668Z,-1.28
2023-04-04T03:14:04.525Z,-1.22
2023-04-04T03:16:40.236Z,-1.09
2023-04-04T03:19:07.692Z,-1.06
2023-04-04T03:21:34.394Z,-1.23
2023-04-04T03:24:01.187Z,-1.16
2023-04-04T03:26:29.523Z,-1.23
2023-04-04T03:28:56.316Z,-1.38
2023-04-04T03:31:24.900Z,-1.26
2023-04-04T03:33:51.957Z,-1.32
2023-04-04T03:36:18.693Z,-1.35
2023-04-04T03:38:48.933Z,-1.41
2023-04-04T03:41:15.782Z,-1.35
2023-04-04T03:43:42.456Z,-1.46
2023-04-04T03:46:09.238Z,-1.53
2023-04-04T03:48:36.310Z,-1.56
2023-04-04T03:51:07.044Z,-1.55
2023-04-04T03:53:35.875Z,-1.41
2023-04-04T03:56:02.769Z,-1.48
2023-04-04T03:58:30.405Z,-1.51
2023-04-04T04:00:57.237Z,-1.55
2023-04-04T04:03:27.230Z,-1.56
2023-04-04T04:05:54.132Z,-1.55
2023-04-04T04:08:21.972Z,-1.56
2023-04-04T04:10:49.808Z,-1.76
2023-04-04T04:13:16.741Z,-1.65
2023-04-04T04:15:43.730Z,-1.81
2023-04-04T04:18:17.014Z,-1.59
2023-04-04T04:20:43.914Z,-1.48
2023-04-04T04:23:10.762Z,-1.57
2023-04-04T04:25:37.884Z,-1.56
2023-04-04T04:28:14.422Z,-1.68
2023-04-04T04:30:41.731Z,-1.69
2023-04-04T04:33:09.136Z,-1.72
2023-04-04T04:35:44.928Z,-1.64
2023-04-04T04:38:11.795Z,-1.84
2023-04-04T04:40:40.387Z,-1.67
2023-04-04T04:43:19.596Z,-1.75
2023-04-04T04:45:48.677Z,-1.71
2023-04-04T04:48:19.805Z,-1.84
2023-04-04T04:50:51.502Z,-1.89
2023-04-04T04:53:28.849Z,-1.73
2023-04-04T04:55:55.622Z,-1.88
2023-04-04T04:58:24.739Z,-1.78
2023-04-04T05:00:58.002Z,-1.61
2023-04-04T05:03:31.510Z,-1.76
2023-04-04T05:05:58.537Z,-1.76
2023-04-04T05:08:25.387Z,-1.67
2023-04-04T05:11:03.235Z,-1.76
2023-04-04T05:13:31.969Z,-1.72
2023-04-04T05:15:59.547Z,-1.72
2023-04-04T05:18:27.658Z,-1.65
2023-04-04T05:20:55.742Z,-1.66
2023-04-04T05:23:25.161Z,-1.52
2023-04-04T05:25:53.639Z,-1.69
2023-04-04T05:28:23.853Z,-1.59
2023-04-04T05:30:53.683Z,-1.65
2023-04-04T05:33:24.496Z,-1.53
2023-04-04T05:36:01.648Z,-1.62
2023-04-04T05:38:31.645Z,-1.44
2023-04-04T05:40:58.392Z,-1.41
2023-04-04T05:43:25.890Z,-1.38
2023-04-04T05:45:59.108Z,-1.44
2023-04-04T05:48:27.762Z,-1.50
2023-04-04T05:50:54.434Z,-1.31
2023-04-04T05:53:32.893Z,-1.11
2023-04-04T05:56:01.222Z,-1.28
2023-04-04T05:58:31.021Z,-1.21
2023-04-04T06:00:59.076Z,-1.12
2023-04-04T06:03:26.030Z,-1.03
2023-04-04T06:05:53.452Z,-0.93
2023-04-04T06:08:20.567Z,-0.83
2023-04-04T06:10:47.290Z,-0.77
2023-04-04T06:13:14.025Z,-0.68
2023-04-04T06:15:43.723Z,-0.59
2023-04-04T06:18:11.715Z,-0.39
2023-04-04T06:20:38.683Z,-0.24
2023-04-04T06:23:05.936Z,-0.18
2023-04-04T06:25:37.358Z,-0.07
2023-04-04T06:28:04.531Z,0.09
2023-04-04T06:30:35.780Z,0.21
2023-04-04T06:33:03.784Z,0.21
2023-04-04T06:35:31.057Z,0.18
2023-04-04T06:37:59.762Z,0.19
2023-04-04T06:40:27.187Z,0.33
2023-04-04T06:42:58.083Z,0.52
2023-04-04T06:45:29.756Z,0.76
2023-04-04T06:47:56.762Z,1.02
2023-04-04T06:50:23.584Z,1.01
2023-04-04T06:52:50.786Z,1.70
2023-04-04T06:55:18.502Z,1.93
2023-04-04T06:57:45.171Z,1.89
2023-04-04T07:00:12.632Z,2.18
2023-04-04T07:02:39.437Z,2.17
2023-04-04T07:05:06.901Z,2.66
2023-04-04T07:07:33.694Z,2.79
2023-04-04T07:10:00.664Z,2.26
2023-04-04T07:12:27.508Z,2.68
2023-04-04T07:14:54.178Z,3.25
2023-04-04T07:17:24.589Z,2.96
2023-04-04T07:19:52.156Z,2.93
2023-04-04T07:22:19.196Z,3.65
2023-04-04T07:24:46.010Z,3.03
2023-04-04T07:27:15.513Z,3.42
2023-04-04T07:29:42.688Z,3.26
2023-04-04T07:32:09.535Z,4.18
2023-04-04T07:34:36.515Z,4.54
2023-04-04T07:37:03.282Z,4.01
2023-04-04T07:39:29.994Z,5.55
2023-04-04T07:41:56.739Z,4.68
2023-04-04T07:44:23.470Z,4.79
2023-04-04T07:47:02.357Z,4.46
2023-04-04T07:49:33.680Z,4.66
2023-04-04T07:52:00.353Z,5.04
2023-04-04T07:54:27.482Z,4.41
2023-04-04T07:56:54.230Z,4.76
2023-04-04T07:59:20.947Z,5.12
2023-04-04T08:01:47.599Z,5.27
2023-04-04T08:04:14.365Z,4.99
2023-04-04T08:06:41.392Z,4.71
2023-04-04T08:09:08.212Z,4.63
2023-04-04T08:11:35.473Z,6.16
2023-04-04T08:14:02.299Z,3.58
2023-04-04T08:16:29.030Z,5.23
2023-04-04T08:18:56.511Z,5.68
2023-04-04T08:21:24.071Z,5.76
2023-04-04T08:23:50.731Z,5.15
2023-04-04T08:26:17.587Z,4.83
2023-04-04T08:28:45.626Z,5.56
2023-04-04T08:31:12.633Z,5.61
2023-04-04T08:33:47.134Z,6.71
2023-04-04T08:36:14.820Z,4.71
2023-04-04T08:38:41.593Z,5.22
2023-04-04T08:41:08.925Z,5.44
2023-04-04T08:43:38.619Z,5.86
2023-04-04T08:46:06.125Z,5.27
2023-04-04T08:48:34.002Z,5.25
2023-04-04T08:51:02.021Z,5.34
2023-04-04T08:53:29.631Z,5.50
2023-04-04T08:55:58.559Z,5.04
2023-04-04T08:58:25.315Z,6.90
2023-04-04T09:00:56.239Z,5.63
2023-04-04T09:03:28.427Z,5.42
2023-04-04T09:05:55.791Z,5.88
2023-04-04T09:08:25.006Z,6.15
2023-04-04T09:10:52.634Z,7.04
2023-04-04T09:13:19.794Z,7.16
2023-04-04T09:15:52.673Z,6.32
2023-04-04T09:18:19.357Z,6.22
2023-04-04T09:20:47.735Z,5.98
2023-04-04T09:23:20.834Z,5.06
2023-04-04T09:28:21.766Z,6.73
2023-04-04T09:30:49.779Z,6.79
2023-04-04T09:33:17.711Z,8.00
2023-04-04T09:35:52.711Z,8.20
2023-04-04T09:38:23.262Z,8.12
2023-04-04T09:40:50.340Z,6.80
2023-04-04T09:43:18.257Z,7.97
2023-04-04T09:45:46.486Z,7.11
2023-04-04T09:48:13.875Z,9.76
2023-04-04T09:50:47.105Z,6.65
2023-04-04T09:53:18.684Z,6.70
2023-04-04T09:55:53.978Z,7.38
2023-04-04T09:58:28.460Z,6.58
2023-04-04T10:01:02.988Z,7.12
2023-04-04T10:03:30.730Z,8.51
2023-04-04T10:06:06.919Z,7.90
2023-04-04T10:08:35.239Z,8.35
2023-04-04T10:11:10.522Z,7.92
2023-04-04T10:13:44.744Z,6.78
2023-04-04T10:16:12.213Z,6.49
2023-04-04T10:18:39.866Z,8.71
2023-04-04T10:23:39.107Z,7.78
2023-04-04T10:26:06.314Z,9.07
2023-04-04T10:28:34.680Z,9.63
2023-04-04T10:31:17.553Z,9.52
2023-04-04T10:34:04.828Z,8.17
2023-04-04T10:36:43.739Z,8.02
2023-04-04T10:39:48.264Z,8.05
2023-04-04T10:42:18.574Z,7.84
2023-04-04T10:44:46.254Z,7.63
2023-04-04T10:47:23.481Z,10.01
2023-04-04T10:49:51.469Z,8.65
2023-04-04T10:52:24.205Z,9.17
2023-04-04T10:54:54.758Z,8.02
2023-04-04T10:57:22.413Z,9.21
2023-04-04T11:00:01.408Z,10.35
2023-04-04T11:02:46.821Z,7.54
2023-04-04T11:05:21.029Z,9.89
2023-04-04T11:08:04.481Z,10.54
2023-04-04T11:10:53.678Z,7.40
2023-04-04T11:13:26.369Z,8.19
2023-04-04T11:16:05.474Z,8.12
2023-04-04T11:18:34.048Z,9.25
2023-04-04T11:21:05.743Z,8.07
2023-04-04T11:23:47.760Z,8.74
2023-04-04T11:26:18.991Z,9.88
2023-04-04T11:28:47.311Z,10.24
2023-04-04T11:31:20.778Z,10.52
2023-04-04T11:34:09.779Z,9.50
2023-04-04T11:36:36.679Z,9.59
2023-04-04T11:39:08.319Z,8.51
2023-04-04T11:41:59.874Z,8.04
2023-04-04T11:44:29.712Z,10.02
2023-04-04T11:47:01.089Z,10.62
2023-04-04T11:49:29.900Z,10.59
2023-04-04T11:51:57.511Z,10.29
2023-04-04T11:54:24.594Z,11.77
2023-04-04T11:56:51.629Z,11.15
2023-04-04T11:59:21.612Z,12.00
2023-04-04T12:01:52.394Z,11.27
2023-04-04T12:04:20.404Z,11.66
2023-04-04T12:06:51.639Z,11.50
2023-04-04T12:09:20.507Z,11.37
2023-04-04T12:11:48.122Z,9.13
2023-04-04T12:14:26.075Z,9.13
2023-04-04T12:16:57.682Z,9.04
2023-04-04T12:19:24.854Z,9.94
2023-04-04T12:21:53.675Z,9.64
2023-04-04T12:24:20.955Z,10.00
2023-04-04T12:26:51.234Z,8.88
2023-04-04T12:29:20.824Z,8.85
2023-04-04T12:31:48.863Z,9.11
2023-04-04T12:37:16.438Z,10.86
2023-04-04T12:39:51.238Z,11.02
2023-04-04T12:42:25.372Z,11.66
2023-04-04T12:44:54.158Z,10.15
2023-04-04T12:47:24.308Z,9.81
2023-04-04T12:49:55.084Z,10.49
2023-04-04T12:52:26.702Z,10.30
2023-04-04T12:55:06.700Z,10.81
2023-04-04T12:57:36.136Z,10.99
2023-04-04T13:00:06.758Z,12.38
2023-04-04T13:02:36.328Z,10.44
2023-04-04T13:05:04.083Z,11.20
2023-04-04T13:07:43.524Z,11.58
2023-04-04T13:10:15.143Z,11.30
2023-04-04T13:13:00.210Z,9.73
2023-04-04T13:15:50.844Z,10.73
2023-04-04T13:18:23.944Z,10.63
2023-04-04T13:20:52.474Z,10.66
2023-04-04T13:23:20.625Z,10.10
2023-04-04T13:25:47.703Z,9.42
2023-04-04T13:28:14.594Z,12.57
2023-04-04T13:30:46.912Z,12.72
2023-04-04T13:33:13.754Z,13.23
2023-04-04T13:35:42.939Z,11.78
2023-04-04T13:38:10.289Z,11.96
2023-04-04T13:40:37.144Z,10.08
2023-04-04T13:43:04.013Z,9.62
2023-04-04T13:45:34.932Z,10.11
2023-04-04T13:48:02.576Z,12.72
2023-04-04T13:50:31.972Z,13.54
2023-04-04T13:52:59.268Z,10.65
2023-04-04T13:55:27.528Z,10.68
2023-04-04T13:57:54.398Z,10.15
2023-04-04T14:00:21.648Z,10.11
2023-04-04T14:02:53.660Z,12.18
2023-04-04T14:05:22.585Z,13.52
2023-04-04T14:07:49.423Z,13.35
2023-04-04T14:10:17.228Z,10.90
2023-04-04T14:12:44.019Z,13.01
2023-04-04T14:15:12.330Z,13.34
2023-04-04T14:17:39.008Z,12.03
2023-04-04T14:20:06.994Z,10.64
2023-04-04T14:22:34.298Z,9.61
2023-04-04T14:25:01.443Z,9.16
2023-04-04T14:27:28.147Z,9.41
2023-04-04T14:29:54.891Z,9.59
2023-04-04T14:32:21.703Z,11.26
2023-04-04T14:34:48.409Z,11.98
2023-04-04T14:37:15.059Z,12.19
2023-04-04T14:39:41.791Z,12.27
2023-04-04T14:42:08.818Z,10.36
2023-04-04T14:44:35.651Z,10.82
2023-04-04T14:47:02.337Z,10.35
2023-04-04T14:49:29.055Z,10.16
2023-04-04T14:51:55.901Z,9.62
2023-04-04T14:54:22.578Z,9.02
2023-04-04T14:56:49.260Z,11.01
2023-04-04T14:59:16.606Z,10.41
2023-04-04T15:01:43.612Z,10.68
2023-04-04T15:04:11.737Z,10.75
2023-04-04T15:06:39.491Z,10.27
2023-04-04T15:09:06.737Z,9.92
2023-04-04T15:11:35.567Z,12.04
2023-04-04T15:14:02.453Z,10.64
2023-04-04T15:16:33.533Z,9.88
2023-04-04T15:19:01.103Z,10.06
2023-04-04T15:21:28.723Z,9.38
2023-04-04T15:23:55.950Z,9.30
2023-04-04T15:26:23.039Z,11.74
2023-04-04T15:28:49.865Z,11.90
2023-04-04T15:31:17.155Z,10.33
2023-04-04T15:33:43.987Z,10.72
2023-04-04T15:36:10.818Z,11.25
2023-04-04T15:38:37.486Z,10.09
2023-04-04T15:41:10.623Z,10.26
2023-04-04T15:43:37.526Z,11.03
2023-04-04T15:46:04.775Z,10.80
2023-04-04T15:48:31.632Z,12.24
2023-04-04T15:51:02.492Z,12.41
2023-04-04T15:53:33.650Z,12.02
2023-04-04T15:56:02.144Z,10.16
2023-04-04T15:58:28.835Z,9.35
2023-04-04T16:00:56.193Z,9.54
2023-04-04T16:03:25.857Z,9.60
2023-04-04T16:05:52.793Z,9.54
2023-04-04T16:08:19.639Z,9.25
2023-04-04T16:10:46.354Z,9.29
2023-04-04T16:13:14.102Z,8.55
2023-04-04T16:15:41.183Z,8.86
2023-04-04T16:18:08.989Z,8.89
2023-04-04T16:20:36.278Z,8.51
2023-04-04T16:23:03.102Z,8.92
2023-04-04T16:25:29.816Z,8.82
2023-04-04T16:27:56.588Z,8.42
2023-04-04T16:30:23.311Z,8.15
2023-04-04T16:32:51.056Z,8.50
2023-04-04T16:35:18.020Z,8.34
2023-04-04T16:37:44.849Z,8.29
2023-04-04T16:40:13.948Z,8.03
2023-04-04T16:42:41.721Z,8.08
2023-04-04T16:45:09.455Z,8.20
2023-04-04T16:47:36.771Z,7.55
2023-04-04T16:50:07.493Z,7.62
2023-04-04T16:52:34.224Z,7.63
2023-04-04T16:55:00.955Z,7.88
2023-04-04T16:57:27.780Z,7.45
2023-04-04T16:59:54.785Z,7.25
2023-04-04T17:02:21.462Z,7.34
2023-04-04T17:04:48.197Z,7.17
2023-04-04T17:07:15.024Z,7.07
2023-04-04T17:09:41.722Z,7.04
2023-04-04T17:12:08.525Z,7.03
2023-04-04T17:14:35.820Z,7.11
2023-04-04T17:17:02.799Z,7.02
2023-04-04T17:19:31.843Z,7.01
2023-04-04T17:21:58.844Z,7.06
2023-04-04T17:24:27.471Z,6.87
2023-04-04T17:26:56.986Z,6.87
2023-04-04T17:29:26.988Z,6.78
2023-04-04T17:31:55.721Z,6.81
2023-04-04T17:34:23.166Z,6.58
2023-04-04T17:36:51.411Z,6.65
2023-04-04T17:39:18.648Z,6.61
2023-04-04T17:41:48.967Z,6.49
2023-04-04T17:44:20.520Z,6.53
2023-04-04T17:46:47.229Z,6.42
2023-04-04T17:49:20.312Z,6.34
2023-04-04T17:51:48.984Z,6.07
2023-04-04T17:54:16.484Z,6.16
2023-04-04T17:56:47.387Z,5.90
2023-04-04T17:59:15.067Z,5.86
2023-04-04T18:01:42.244Z,5.96
2023-04-04T18:04:09.691Z,5.86
2023-04-04T18:06:39.518Z,5.66
2023-04-04T18:09:07.845Z,5.47
2023-04-04T18:11:36.949Z,5.40
2023-04-04T18:14:04.283Z,5.32
2023-04-04T18:16:39.142Z,5.27
2023-04-04T18:19:07.586Z,5.24
2023-04-04T18:21:34.256Z,5.12
2023-04-04T18:24:00.971Z,5.13
2023-04-04T18:26:27.943Z,5.15
2023-04-04T18:28:54.597Z,5.06
2023-04-04T18:31:21.705Z,4.94
2023-04-04T18:33:49.970Z,4.95
2023-04-04T18:36:16.998Z,4.90
2023-04-04T18:38:43.950Z,4.89
2023-04-04T18:41:11.024Z,4.68
2023-04-04T18:43:37.867Z,4.69
2023-04-04T18:46:05.746Z,4.52
2023-04-04T18:48:33.684Z,4.43
2023-04-04T18:51:01.663Z,4.36
2023-04-04T18:53:31.321Z,4.35
2023-04-04T18:55:58.862Z,4.37
2023-04-04T18:58:26.721Z,4.37
2023-04-04T19:00:55.785Z,4.36
2023-04-04T19:03:22.878Z,4.25
2023-04-04T19:05:50.095Z,4.22
2023-04-04T19:08:18.390Z,4.17
2023-04-04T19:10:50.983Z,4.06
2023-04-04T19:13:18.298Z,4.19
2023-04-04T19:15:45.044Z,4.10
2023-04-04T19:18:12.026Z,4.01
2023-04-04T19:20:42.103Z,3.92
2023-04-04T19:23:09.204Z,3.89
2023-04-04T19:25:35.925Z,3.86
2023-04-04T19:28:02.830Z,3.75
2023-04-04T19:30:47.412Z,3.73
2023-04-04T19:33:17.188Z,3.76
2023-04-04T19:35:52.007Z,3.61
2023-04-04T19:38:23.052Z,3.63
2023-04-04T19:41:13.206Z,3.58
2023-04-04T19:43:42.295Z,3.73
2023-04-04T19:46:14.035Z,3.56
2023-04-04T19:48:49.260Z,3.57
2023-04-04T19:51:16.759Z,3.50
2023-04-04T19:53:45.173Z,3.44
2023-04-04T19:56:13.802Z,3.36
2023-04-04T19:58:40.804Z,3.30
2023-04-04T20:01:09.446Z,3.29
2023-04-04T20:03:40.936Z,3.20
2023-04-04T20:06:27.808Z,3.21
2023-04-04T20:08:59.577Z,3.02
2023-04-04T20:11:30.328Z,2.90
2023-04-04T20:13:58.909Z,2.96
2023-04-04T20:16:26.601Z,2.98
2023-04-04T20:18:53.656Z,2.95
2023-04-04T20:21:27.305Z,2.88
2023-04-04T20:23:55.204Z,2.84
2023-04-04T20:26:40.601Z,2.78
2023-04-04T20:29:10.010Z,2.77
2023-04-04T20:31:43.864Z,2.74
2023-04-04T20:34:30.568Z,2.70
2023-04-04T20:36:57.389Z,2.76
2023-04-04T20:40:17.098Z,2.60
2023-04-04T20:42:43.811Z,2.61
2023-04-04T20:45:10.441Z,2.57
2023-04-04T20:47:46.937Z,2.49
2023-04-04T20:50:16.840Z,2.50
2023-04-04T20:52:50.595Z,2.47
2023-04-04T20:55:18.224Z,2.39
2023-04-04T20:57:48.611Z,2.35
2023-04-04T21:00:31.358Z,2.28
2023-04-04T21:03:00.943Z,2.28
2023-04-04T21:05:29.110Z,2.27
2023-04-04T21:07:56.490Z,2.38
2023-04-04T21:10:24.709Z,2.26
2023-04-04T21:12:52.368Z,2.21
2023-04-04T21:15:26.539Z,2.29
2023-04-04T21:17:53.756Z,2.28
2023-04-04T21:20:59.649Z,2.11
2023-04-04T21:23:29.188Z,2.06
2023-04-04T21:26:08.572Z,2.06
2023-04-04T21:28:38.449Z,2.09
2023-04-04T21:31:14.425Z,2.08
2023-04-04T21:33:48.974Z,2.12
2023-04-04T21:36:28.984Z,2.26
2023-04-04T21:39:01.108Z,2.24
2023-04-04T21:41:29.907Z,2.21
2023-04-04T21:44:01.929Z,2.12
2023-04-04T21:46:32.181Z,2.13
2023-04-04T21:49:00.144Z,2.16
2023-04-04T21:51:27.552Z,2.15
2023-04-04T21:53:54.749Z,2.18
2023-04-04T21:56:22.752Z,2.31
2023-04-04T21:58:50.005Z,2.25
2023-04-04T22:01:16.885Z,2.30
2023-04-04T22:03:43.571Z,2.16
2023-04-04T22:06:12.391Z,2.29
2023-04-04T22:08:39.064Z,2.19
2023-04-04T22:11:06.020Z,2.43
2023-04-04T22:13:43.110Z,2.39
2023-04-04T22:16:16.184Z,2.29
2023-04-04T22:18:47.951Z,2.09
2023-04-04T22:21:15.702Z,1.91
2023-04-04T22:23:42.941Z,1.76
2023-04-04T22:26:14.213Z,1.75
2023-04-04T22:28:42.333Z,1.75
2023-04-04T22:31:09.402Z,1.89
2023-04-04T22:33:36.042Z,1.93
2023-04-04T22:36:05.583Z,2.05
2023-04-04T22:38:32.280Z,2.08
2023-04-04T22:40:58.988Z,1.99
2023-04-04T22:43:26.144Z,1.88
2023-04-04T22:45:53.606Z,1.86
2023-04-04T22:48:23.221Z,1.92
2023-04-04T22:50:55.896Z,1.96
2023-04-04T22:53:26.504Z,1.84
2023-04-04T22:55:54.311Z,1.90
2023-04-04T22:58:21.904Z,1.85
2023-04-04T23:00:49.090Z,1.84
2023-04-04T23:03:16.181Z,1.89
2023-04-04T23:05:43.458Z,1.80
2023-04-04T23:08:11.317Z,1.70
2023-04-04T23:10:38.364Z,1.57
2023-04-04T23:13:05.425Z,1.53
2023-04-04T23:15:35.879Z,1.50
2023-04-04T23:18:02.756Z,1.36
2023-04-04T23:20:32.310Z,1.31
2023-04-04T23:22:59.358Z,1.28
2023-04-04T23:25:26.597Z,1.21
2023-04-04T23:27:54.085Z,1.23
2023-04-04T23:30:23.244Z,1.18
2023-04-04T23:32:50.691Z,1.08
2023-04-04T23:35:17.698Z,1.10
2023-04-04T23:37:44.702Z,1.08
2023-04-04T23:40:12.180Z,1.05
2023-04-04T23:42:38.999Z,1.00
2023-04-04T23:45:06.415Z,0.97
2023-04-04T23:47:33.267Z,0.92
2023-04-04T23:50:00.325Z,0.89
2023-04-04T23:52:29.560Z,0.88
2023-04-04T23:54:56.213Z,0.87
2023-04-04T23:57:23.073Z,0.83
2023-04-04T23:59:49.755Z,0.73
